createdAt,value
2017-07-09T00:00:06.458Z,70.40
2017-07-09T00:02:33.995Z,71.00
2017-07-09T00:05:01.536Z,70.40
2017-07-09T00:07:29.124Z,70.10
2017-07-09T00:09:56.664Z,70.20
2017-07-09T00:12:24.198Z,69.70
2017-07-09T00:14:51.766Z,69.70
2017-07-09T00:17:19.556Z,69.30
2017-07-09T00:19:47.131Z,68.60
2017-07-09T00:22:14.682Z,68.80
2017-07-09T00:24:42.221Z,69.30
2017-07-09T00:27:09.790Z,68.70
2017-07-09T00:29:37.366Z,68.70
2017-07-09T00:32:04.975Z,68.90
2017-07-09T00:34:32.510Z,68.80
2017-07-09T00:37:00.081Z,68.70
2017-07-09T00:39:27.646Z,68.70
2017-07-09T00:41:55.203Z,68.80
2017-07-09T00:44:22.781Z,68.60
2017-07-09T00:46:50.333Z,68.80
2017-07-09T00:49:17.881Z,69.00
2017-07-09T00:51:45.461Z,68.70
2017-07-09T00:54:13.002Z,68.60
2017-07-09T00:56:40.924Z,68.50
2017-07-09T00:59:08.492Z,68.80
2017-07-09T01:01:36.022Z,69.00
2017-07-09T01:04:03.663Z,69.50
2017-07-09T01:06:31.193Z,70.60
2017-07-09T01:08:58.736Z,71.30
2017-07-09T01:11:26.325Z,71.30
2017-07-09T01:13:53.890Z,70.80
2017-07-09T01:16:21.450Z,70.60
2017-07-09T01:18:49.016Z,71.00
2017-07-09T01:21:16.606Z,71.10
2017-07-09T01:23:44.155Z,70.60
2017-07-09T01:26:11.696Z,69.70
2017-07-09T01:28:39.286Z,69.50
2017-07-09T01:31:06.845Z,69.30
2017-07-09T01:33:34.387Z,68.90
2017-07-09T01:36:01.962Z,68.20
2017-07-09T01:38:29.510Z,68.50
2017-07-09T01:40:57.076Z,69.00
2017-07-09T01:43:24.654Z,68.90
2017-07-09T01:45:52.193Z,68.40
2017-07-09T01:48:19.768Z,69.10
2017-07-09T01:50:47.335Z,69.20
2017-07-09T01:53:14.890Z,69.50
2017-07-09T01:55:42.498Z,69.50
2017-07-09T01:58:10.086Z,69.60
2017-07-09T02:00:37.654Z,69.70
2017-07-09T02:03:05.261Z,69.70
2017-07-09T02:05:32.835Z,70.00
2017-07-09T02:08:00.368Z,70.00
2017-07-09T02:10:27.941Z,70.60
2017-07-09T02:12:55.477Z,69.60
2017-07-09T02:15:23.023Z,70.00
2017-07-09T02:17:50.619Z,69.90
2017-07-09T02:20:18.171Z,69.80
2017-07-09T02:22:45.760Z,70.10
2017-07-09T02:25:13.305Z,70.50
2017-07-09T02:27:40.847Z,70.70
2017-07-09T02:30:08.430Z,70.80
2017-07-09T02:32:36.001Z,70.80
2017-07-09T02:35:03.564Z,70.90
2017-07-09T02:37:31.102Z,71.40
2017-07-09T02:39:58.691Z,71.30
2017-07-09T02:42:26.226Z,71.60
2017-07-09T02:44:53.762Z,71.70
2017-07-09T02:47:21.337Z,71.80
2017-07-09T02:49:48.903Z,71.80
2017-07-09T02:52:16.491Z,71.70
2017-07-09T02:54:44.113Z,71.70
2017-07-09T02:57:11.676Z,71.60
2017-07-09T02:59:39.262Z,71.90
2017-07-09T03:02:06.808Z,72.00
2017-07-09T03:04:34.382Z,71.90
2017-07-09T03:07:01.923Z,71.90
2017-07-09T03:09:29.461Z,71.30
2017-07-09T03:11:57.032Z,71.30
2017-07-09T03:14:24.583Z,71.20
2017-07-09T03:16:52.206Z,71.60
2017-07-09T03:19:20.094Z,71.20
2017-07-09T03:21:47.637Z,70.90
2017-07-09T03:24:15.217Z,71.30
2017-07-09T03:26:42.755Z,71.40
2017-07-09T03:29:10.317Z,71.60
2017-07-09T03:31:37.873Z,71.20
2017-07-09T03:34:05.466Z,70.80
2017-07-09T03:36:33.001Z,71.00
2017-07-09T03:39:00.542Z,71.60
2017-07-09T03:41:28.123Z,71.70
2017-07-09T03:43:55.669Z,71.70
2017-07-09T03:46:23.241Z,72.10
2017-07-09T03:48:50.776Z,71.90
2017-07-09T03:51:18.385Z,72.30
2017-07-09T03:53:45.917Z,72.20
2017-07-09T03:56:13.457Z,71.80
2017-07-09T03:58:41.050Z,71.60
2017-07-09T04:01:08.630Z,72.00
2017-07-09T04:03:36.182Z,72.10
2017-07-09T04:06:03.718Z,72.20
2017-07-09T04:08:31.289Z,72.50
2017-07-09T04:10:58.823Z,72.70
2017-07-09T04:13:26.396Z,73.00
2017-07-09T04:15:53.929Z,72.50
2017-07-09T04:18:21.485Z,73.20
2017-07-09T04:20:49.062Z,73.50
2017-07-09T04:23:16.598Z,73.20
2017-07-09T04:25:44.215Z,73.90
2017-07-09T04:28:11.782Z,74.00
2017-07-09T04:30:39.343Z,73.90
2017-07-09T04:33:06.957Z,73.00
2017-07-09T04:35:34.490Z,72.80
2017-07-09T04:38:02.044Z,72.70
2017-07-09T04:40:29.619Z,72.90
2017-07-09T04:42:57.202Z,72.30
2017-07-09T04:45:24.780Z,72.10
2017-07-09T04:47:52.336Z,71.60
2017-07-09T04:50:19.973Z,71.90
2017-07-09T04:52:47.547Z,72.00
2017-07-09T04:55:15.106Z,71.60
2017-07-09T04:57:42.697Z,71.80
2017-07-09T05:00:10.508Z,71.90
2017-07-09T05:02:38.282Z,72.00
2017-07-09T05:05:05.873Z,72.10
2017-07-09T05:07:33.421Z,71.90
2017-07-09T05:10:01.011Z,71.60
2017-07-09T05:12:28.556Z,71.80
2017-07-09T05:14:56.099Z,71.80
2017-07-09T05:17:23.667Z,71.50
2017-07-09T05:19:51.203Z,71.00
2017-07-09T05:22:18.780Z,71.70
2017-07-09T05:24:46.322Z,72.00
2017-07-09T05:27:13.905Z,71.50
2017-07-09T05:29:41.450Z,71.50
2017-07-09T05:32:09.047Z,71.50
2017-07-09T05:34:36.595Z,71.00
2017-07-09T05:37:04.134Z,70.70
2017-07-09T05:39:31.745Z,71.20
2017-07-09T05:41:59.298Z,71.00
2017-07-09T05:44:27.697Z,71.30
2017-07-09T05:46:55.283Z,71.70
2017-07-09T05:49:22.875Z,71.80
2017-07-09T05:51:50.420Z,72.00
2017-07-09T05:54:17.961Z,71.50
2017-07-09T05:56:45.531Z,71.00
2017-07-09T05:59:13.349Z,70.60
2017-07-09T06:01:40.895Z,70.80
2017-07-09T06:04:08.495Z,71.10
2017-07-09T06:06:36.036Z,70.90
2017-07-09T06:09:03.587Z,71.70
2017-07-09T06:11:31.160Z,71.20
2017-07-09T06:13:58.712Z,71.80
2017-07-09T06:16:26.331Z,71.50
2017-07-09T06:18:53.887Z,72.10
2017-07-09T06:21:21.490Z,71.30
2017-07-09T06:23:49.966Z,71.70
2017-07-09T06:26:17.502Z,71.80
2017-07-09T06:28:45.074Z,71.60
2017-07-09T06:31:12.621Z,70.70
2017-07-09T06:33:40.209Z,69.60
2017-07-09T06:36:07.776Z,68.70
2017-07-09T06:38:35.320Z,68.30
2017-07-09T06:41:02.893Z,68.60
2017-07-09T06:43:30.438Z,68.20
2017-07-09T06:45:58.883Z,67.80
2017-07-09T06:48:26.424Z,67.50
2017-07-09T06:50:54.018Z,66.70
2017-07-09T06:53:21.563Z,66.60
2017-07-09T06:55:50.534Z,67.10
2017-07-09T06:58:18.962Z,66.00
2017-07-09T07:00:46.498Z,64.70
2017-07-09T07:03:14.069Z,63.80
2017-07-09T07:05:41.623Z,63.30
2017-07-09T07:08:09.205Z,62.30
2017-07-09T07:10:36.765Z,62.00
2017-07-09T07:13:04.338Z,62.00
2017-07-09T07:15:31.937Z,61.70
2017-07-09T07:17:59.485Z,61.90
2017-07-09T07:20:27.070Z,61.40
2017-07-09T07:22:54.619Z,61.00
2017-07-09T07:25:22.166Z,60.00
2017-07-09T07:27:49.780Z,59.70
2017-07-09T07:30:17.331Z,59.60
2017-07-09T07:32:44.928Z,59.90
2017-07-09T07:35:12.474Z,60.00
2017-07-09T07:37:40.047Z,60.40
2017-07-09T07:40:07.627Z,60.50
2017-07-09T07:42:35.214Z,61.80
2017-07-09T07:45:02.777Z,62.00
2017-07-09T07:47:30.342Z,61.90
2017-07-09T07:49:57.931Z,61.50
2017-07-09T07:52:25.477Z,62.60
2017-07-09T07:54:53.019Z,63.30
2017-07-09T07:57:20.595Z,62.30
2017-07-09T07:59:48.161Z,61.00
2017-07-09T08:02:15.759Z,60.90
2017-07-09T08:04:43.305Z,60.10
2017-07-09T08:07:10.889Z,60.10
2017-07-09T08:09:38.483Z,59.60
2017-07-09T08:12:06.022Z,60.80
2017-07-09T08:14:33.615Z,61.70
2017-07-09T08:17:01.165Z,62.60
2017-07-09T08:19:28.726Z,63.20
2017-07-09T08:21:56.317Z,62.40
2017-07-09T08:24:23.895Z,61.90
2017-07-09T08:26:51.651Z,61.90
2017-07-09T08:29:19.255Z,62.30
2017-07-09T08:31:46.886Z,61.10
2017-07-09T08:34:14.459Z,61.50
2017-07-09T08:36:42.039Z,61.60
2017-07-09T08:39:09.622Z,62.00
2017-07-09T08:41:37.172Z,61.70
2017-07-09T08:44:04.818Z,62.00
2017-07-09T08:46:32.360Z,61.20
2017-07-09T08:48:59.923Z,61.30
2017-07-09T08:51:27.518Z,61.20
2017-07-09T08:53:55.076Z,61.30
2017-07-09T08:56:22.669Z,61.70
2017-07-09T08:58:50.271Z,61.10
2017-07-09T09:01:17.819Z,61.20
2017-07-09T09:03:45.408Z,61.50
2017-07-09T09:06:13.005Z,60.80
2017-07-09T09:08:40.587Z,60.90
2017-07-09T09:11:08.150Z,60.20
2017-07-09T09:13:35.750Z,60.50
2017-07-09T09:16:03.290Z,60.70
2017-07-09T09:18:30.829Z,59.50
2017-07-09T09:20:58.601Z,59.40
2017-07-09T09:23:26.152Z,58.60
2017-07-09T09:25:53.753Z,58.50
2017-07-09T09:28:22.409Z,58.60
2017-07-09T09:30:49.997Z,56.90
2017-07-09T09:33:17.540Z,57.20
2017-07-09T09:35:45.090Z,56.70
2017-07-09T09:38:12.665Z,57.10
2017-07-09T09:40:40.254Z,56.30
2017-07-09T09:43:07.827Z,55.00
2017-07-09T09:45:35.411Z,55.60
2017-07-09T09:48:02.950Z,55.50
2017-07-09T09:50:30.546Z,55.70
2017-07-09T09:52:58.098Z,55.50
2017-07-09T09:55:25.681Z,55.10
2017-07-09T09:57:53.221Z,55.30
2017-07-09T10:00:20.793Z,54.40
2017-07-09T10:02:48.379Z,54.30
2017-07-09T10:05:15.941Z,53.80
2017-07-09T10:07:43.523Z,54.20
2017-07-09T10:10:11.082Z,54.10
2017-07-09T10:12:38.667Z,53.70
2017-07-09T10:15:06.249Z,54.40
2017-07-09T10:17:33.810Z,54.20
2017-07-09T10:20:01.403Z,54.20
2017-07-09T10:22:29.019Z,53.20
2017-07-09T10:24:56.835Z,52.80
2017-07-09T10:27:24.414Z,51.70
2017-07-09T10:29:51.975Z,52.30
2017-07-09T10:32:20.333Z,52.80
2017-07-09T10:34:47.908Z,52.90
2017-07-09T10:37:15.827Z,52.80
2017-07-09T10:39:43.420Z,51.90
2017-07-09T10:42:10.983Z,52.70
2017-07-09T10:44:38.579Z,53.10
2017-07-09T10:47:06.125Z,53.50
2017-07-09T10:49:33.707Z,52.40
2017-07-09T10:52:01.297Z,52.20
2017-07-09T10:54:28.858Z,52.20
2017-07-09T10:56:56.438Z,52.40
2017-07-09T10:59:24.005Z,52.00
2017-07-09T11:01:51.614Z,51.70
2017-07-09T11:04:19.219Z,51.80
2017-07-09T11:06:46.766Z,52.60
2017-07-09T11:09:14.403Z,52.30
2017-07-09T11:11:42.017Z,51.70
2017-07-09T11:14:09.608Z,51.70
2017-07-09T11:16:37.191Z,50.40
2017-07-09T11:19:04.775Z,50.60
2017-07-09T11:21:32.359Z,51.40
2017-07-09T11:24:00.009Z,50.80
2017-07-09T11:26:27.595Z,51.10
2017-07-09T11:28:56.778Z,50.90
2017-07-09T11:31:24.366Z,50.80
2017-07-09T11:33:51.938Z,51.10
2017-07-09T11:36:19.571Z,51.00
2017-07-09T11:38:47.123Z,52.50
2017-07-09T11:41:14.689Z,51.10
2017-07-09T11:43:42.262Z,49.40
2017-07-09T11:46:09.806Z,49.70
2017-07-09T11:48:38.375Z,49.10
2017-07-09T11:51:05.923Z,48.60
2017-07-09T11:53:33.514Z,48.90
2017-07-09T11:56:01.078Z,48.60
2017-07-09T11:58:28.654Z,49.00
2017-07-09T12:00:56.718Z,49.40
2017-07-09T12:03:24.268Z,48.90
2017-07-09T12:05:51.813Z,47.90
2017-07-09T12:08:19.388Z,47.10
2017-07-09T12:10:46.926Z,46.90
2017-07-09T12:13:14.524Z,47.20
2017-07-09T12:15:42.073Z,45.90
2017-07-09T12:18:09.699Z,45.40
2017-07-09T12:20:38.922Z,45.20
2017-07-09T12:23:06.497Z,46.00
2017-07-09T12:25:34.121Z,46.20
2017-07-09T12:28:01.669Z,45.80
2017-07-09T12:30:29.251Z,45.30
2017-07-09T12:32:56.831Z,44.50
2017-07-09T12:35:24.476Z,44.10
2017-07-09T12:37:52.039Z,43.70
2017-07-09T12:40:19.663Z,44.10
2017-07-09T12:42:47.243Z,45.30
2017-07-09T12:45:14.834Z,44.60
2017-07-09T12:47:43.167Z,45.50
2017-07-09T12:50:12.850Z,45.30
2017-07-09T12:52:40.669Z,43.60
2017-07-09T12:55:08.229Z,44.70
2017-07-09T12:57:35.802Z,44.50
2017-07-09T13:00:03.422Z,44.20
2017-07-09T13:02:30.970Z,43.50
2017-07-09T13:04:58.576Z,43.90
2017-07-09T13:07:26.936Z,42.90
2017-07-09T13:09:54.496Z,43.40
2017-07-09T13:12:22.096Z,43.10
2017-07-09T13:14:49.761Z,43.90
2017-07-09T13:17:17.379Z,43.70
2017-07-09T13:19:45.014Z,43.50
2017-07-09T13:22:12.588Z,43.10
2017-07-09T13:24:40.159Z,42.20
2017-07-09T13:27:08.278Z,43.00
2017-07-09T13:29:35.840Z,42.60
2017-07-09T13:32:03.431Z,42.50
2017-07-09T13:34:31.003Z,43.00
2017-07-09T13:36:58.543Z,43.60
2017-07-09T13:39:26.132Z,43.50
2017-07-09T13:41:53.701Z,43.00
2017-07-09T13:44:21.240Z,42.50
2017-07-09T13:46:48.799Z,42.50
2017-07-09T13:49:16.359Z,42.30
2017-07-09T13:51:43.954Z,41.80
2017-07-09T13:54:11.499Z,42.10
2017-07-09T13:56:39.111Z,41.90
2017-07-09T13:59:06.695Z,42.20
2017-07-09T14:01:34.283Z,41.50
2017-07-09T14:04:01.897Z,42.30
2017-07-09T14:06:29.470Z,41.50
2017-07-09T14:08:57.047Z,40.60
2017-07-09T14:11:24.597Z,41.30
2017-07-09T14:13:52.173Z,41.20
2017-07-09T14:16:19.733Z,42.20
2017-07-09T14:18:47.293Z,41.10
2017-07-09T14:21:14.904Z,40.20
2017-07-09T14:23:42.472Z,41.00
2017-07-09T14:26:10.019Z,41.50
2017-07-09T14:28:37.654Z,42.00
2017-07-09T14:31:05.198Z,41.40
2017-07-09T14:33:33.011Z,40.90
2017-07-09T14:36:00.575Z,41.50
2017-07-09T14:38:28.272Z,40.30
2017-07-09T14:40:55.813Z,40.30
2017-07-09T14:43:23.422Z,40.60
2017-07-09T14:45:51.047Z,40.30
2017-07-09T14:48:18.606Z,40.80
2017-07-09T14:50:46.195Z,40.10
2017-07-09T14:53:13.746Z,40.50
2017-07-09T14:55:41.283Z,41.10
2017-07-09T14:58:08.843Z,40.40
2017-07-09T15:00:36.387Z,40.70
2017-07-09T15:03:03.962Z,40.50
2017-07-09T15:05:32.423Z,40.40
2017-07-09T15:08:00.013Z,40.60
2017-07-09T15:10:27.602Z,39.80
2017-07-09T15:12:55.503Z,39.70
2017-07-09T15:15:23.083Z,39.10
2017-07-09T15:17:50.632Z,38.90
2017-07-09T15:20:19.971Z,40.00
2017-07-09T15:22:47.550Z,39.80
2017-07-09T15:25:15.121Z,39.50
2017-07-09T15:27:42.670Z,40.40
2017-07-09T15:30:10.242Z,40.90
2017-07-09T15:32:37.817Z,42.00
2017-07-09T15:35:05.398Z,40.10
2017-07-09T15:37:32.930Z,39.50
2017-07-09T15:40:00.654Z,38.90
2017-07-09T15:42:28.216Z,39.50
2017-07-09T15:44:55.798Z,39.70
2017-07-09T15:47:23.371Z,38.70
2017-07-09T15:49:50.910Z,38.90
2017-07-09T15:52:18.522Z,38.90
2017-07-09T15:54:46.075Z,38.80
2017-07-09T15:57:13.700Z,39.40
2017-07-09T15:59:41.385Z,38.10
2017-07-09T16:02:08.983Z,38.30
2017-07-09T16:04:36.557Z,38.40
2017-07-09T16:07:04.091Z,38.80
2017-07-09T16:09:31.657Z,38.30
2017-07-09T16:11:59.262Z,37.80
2017-07-09T16:14:27.647Z,37.70
2017-07-09T16:16:55.173Z,38.20
2017-07-09T16:19:23.209Z,37.20
2017-07-09T16:21:52.040Z,37.50
2017-07-09T16:24:19.627Z,37.70
2017-07-09T16:26:47.174Z,37.00
2017-07-09T16:29:14.748Z,35.90
2017-07-09T16:31:42.297Z,35.40
2017-07-09T16:34:09.845Z,36.50
2017-07-09T16:36:37.431Z,36.30
2017-07-09T16:39:05.009Z,37.10
2017-07-09T16:41:32.569Z,37.10
2017-07-09T16:44:00.369Z,36.60
2017-07-09T16:46:28.354Z,36.50
2017-07-09T16:48:55.926Z,36.80
2017-07-09T16:51:25.104Z,37.30
2017-07-09T16:53:52.653Z,37.40
2017-07-09T16:56:20.264Z,37.50
2017-07-09T16:58:47.849Z,37.70
2017-07-09T17:01:15.394Z,36.70
2017-07-09T17:03:42.958Z,36.70
2017-07-09T17:06:10.564Z,36.90
2017-07-09T17:08:38.102Z,36.60
2017-07-09T17:11:05.649Z,35.90
2017-07-09T17:13:33.193Z,36.20
2017-07-09T17:16:00.826Z,37.00
2017-07-09T17:18:28.377Z,35.70
2017-07-09T17:20:55.916Z,35.80
2017-07-09T17:23:23.493Z,36.10
2017-07-09T17:25:51.047Z,36.00
2017-07-09T17:28:18.624Z,36.40
2017-07-09T17:30:46.172Z,35.80
2017-07-09T17:33:13.763Z,35.70
2017-07-09T17:35:41.306Z,35.90
2017-07-09T17:38:08.879Z,36.20
2017-07-09T17:40:36.470Z,36.00
2017-07-09T17:43:04.018Z,35.50
2017-07-09T17:45:31.613Z,35.80
2017-07-09T17:47:59.171Z,35.90
2017-07-09T17:50:27.937Z,36.00
2017-07-09T17:52:55.521Z,36.10
2017-07-09T17:55:23.121Z,35.30
2017-07-09T17:57:50.734Z,35.30
2017-07-09T18:00:18.310Z,35.10
2017-07-09T18:02:45.891Z,35.60
2017-07-09T18:05:13.460Z,35.40
2017-07-09T18:07:41.046Z,35.50
2017-07-09T18:10:08.597Z,34.90
2017-07-09T18:12:36.281Z,35.20
2017-07-09T18:15:03.828Z,35.40
2017-07-09T18:17:31.398Z,35.80
2017-07-09T18:19:58.999Z,35.90
2017-07-09T18:22:26.614Z,36.00
2017-07-09T18:24:54.182Z,36.30
2017-07-09T18:27:21.754Z,36.40
2017-07-09T18:29:49.310Z,36.90
2017-07-09T18:32:17.884Z,37.40
2017-07-09T18:34:45.423Z,37.10
2017-07-09T18:37:13.035Z,37.60
2017-07-09T18:39:40.589Z,37.70
2017-07-09T18:42:08.134Z,37.10
2017-07-09T18:44:35.762Z,37.50
2017-07-09T18:47:03.310Z,38.10
2017-07-09T18:49:31.189Z,37.90
2017-07-09T18:51:58.758Z,37.70
2017-07-09T18:54:27.297Z,38.30
2017-07-09T18:56:55.762Z,39.70
2017-07-09T18:59:23.937Z,38.50
2017-07-09T19:01:51.528Z,38.60
2017-07-09T19:04:19.081Z,38.80
2017-07-09T19:06:46.666Z,38.90
2017-07-09T19:09:14.255Z,38.70
2017-07-09T19:11:41.880Z,39.80
2017-07-09T19:14:09.412Z,40.00
2017-07-09T19:16:37.023Z,40.10
2017-07-09T19:19:04.611Z,40.40
2017-07-09T19:21:32.182Z,40.40
2017-07-09T19:23:59.771Z,40.30
2017-07-09T19:26:27.322Z,40.80
2017-07-09T19:28:54.886Z,41.10
2017-07-09T19:31:22.490Z,41.30
2017-07-09T19:33:51.056Z,41.50
2017-07-09T19:36:18.615Z,42.20
2017-07-09T19:38:46.819Z,42.60
2017-07-09T19:41:14.418Z,43.50
2017-07-09T19:43:42.753Z,44.20
2017-07-09T19:46:10.338Z,44.80
2017-07-09T19:48:38.014Z,44.50
2017-07-09T19:51:05.629Z,44.60
2017-07-09T19:53:35.272Z,44.20
2017-07-09T19:56:02.824Z,44.30
2017-07-09T19:58:30.403Z,44.00
2017-07-09T20:00:58.157Z,46.90
2017-07-09T20:03:25.712Z,47.40
2017-07-09T20:05:53.290Z,47.60
2017-07-09T20:08:20.840Z,47.30
2017-07-09T20:10:48.466Z,49.70
2017-07-09T20:13:16.011Z,50.10
2017-07-09T20:15:43.631Z,49.80
2017-07-09T20:18:11.180Z,49.60
2017-07-09T20:20:39.458Z,50.20
2017-07-09T20:23:07.080Z,50.50
2017-07-09T20:25:34.676Z,50.30
2017-07-09T20:28:02.277Z,50.50
2017-07-09T20:30:29.809Z,50.70
2017-07-09T20:32:57.574Z,49.80
2017-07-09T20:35:25.194Z,48.30
2017-07-09T20:37:52.785Z,48.30
2017-07-09T20:40:20.436Z,48.80
2017-07-09T20:42:48.717Z,48.90
2017-07-09T20:45:16.309Z,48.60
2017-07-09T20:47:43.929Z,48.30
2017-07-09T20:50:11.473Z,48.40
2017-07-09T20:52:39.067Z,48.10
2017-07-09T20:55:06.646Z,48.60
2017-07-09T20:57:34.211Z,47.90
2017-07-09T21:00:01.790Z,48.10
2017-07-09T21:02:29.385Z,47.80
2017-07-09T21:04:57.847Z,48.10
2017-07-09T21:07:25.415Z,48.60
2017-07-09T21:09:52.986Z,49.10
2017-07-09T21:12:20.565Z,49.10
2017-07-09T21:14:48.164Z,49.00
2017-07-09T21:17:15.722Z,48.70
2017-07-09T21:19:43.321Z,48.20
2017-07-09T21:22:10.861Z,48.50
2017-07-09T21:24:38.658Z,48.50
2017-07-09T21:27:06.333Z,49.10
2017-07-09T21:29:33.943Z,49.60
2017-07-09T21:32:02.086Z,49.20
2017-07-09T21:34:29.664Z,49.00
2017-07-09T21:36:57.250Z,49.60
2017-07-09T21:39:25.033Z,49.50
2017-07-09T21:41:52.571Z,50.40
2017-07-09T21:44:20.151Z,51.20
2017-07-09T21:46:47.690Z,51.20
2017-07-09T21:49:15.502Z,51.40
2017-07-09T21:51:43.082Z,51.80
2017-07-09T21:54:10.855Z,50.80
2017-07-09T21:56:38.402Z,51.30
2017-07-09T21:59:05.975Z,50.00
2017-07-09T22:01:33.590Z,51.70
2017-07-09T22:04:01.136Z,53.50
2017-07-09T22:06:28.717Z,53.90
2017-07-09T22:08:56.251Z,53.80
2017-07-09T22:11:23.793Z,53.10
2017-07-09T22:13:51.374Z,52.90
2017-07-09T22:16:18.914Z,55.40
2017-07-09T22:18:46.494Z,55.80
2017-07-09T22:21:14.029Z,54.50
2017-07-09T22:23:41.560Z,53.50
2017-07-09T22:26:09.131Z,53.10
2017-07-09T22:28:37.653Z,53.70
2017-07-09T22:31:05.233Z,53.60
2017-07-09T22:33:32.775Z,52.60
2017-07-09T22:36:00.368Z,54.20
2017-07-09T22:38:27.937Z,55.00
2017-07-09T22:40:56.582Z,55.30
2017-07-09T22:43:24.139Z,55.70
2017-07-09T22:45:51.678Z,55.80
2017-07-09T22:48:19.244Z,56.30
2017-07-09T22:50:47.724Z,55.70
2017-07-09T22:53:15.294Z,55.00
2017-07-09T22:55:42.859Z,53.80
2017-07-09T22:58:10.396Z,54.10
2017-07-09T23:00:37.977Z,54.10
2017-07-09T23:03:05.498Z,54.60
2017-07-09T23:05:33.065Z,53.90
2017-07-09T23:08:00.622Z,54.00
2017-07-09T23:10:28.161Z,55.30
2017-07-09T23:12:55.730Z,54.00
2017-07-09T23:15:23.254Z,53.20
2017-07-09T23:17:50.825Z,52.70
2017-07-09T23:20:19.256Z,52.90
2017-07-09T23:22:46.788Z,53.00
2017-07-09T23:25:14.315Z,53.20
2017-07-09T23:27:41.889Z,53.30
2017-07-09T23:30:09.462Z,54.30
2017-07-09T23:32:37.024Z,55.60
2017-07-09T23:35:04.562Z,55.20
2017-07-09T23:37:32.974Z,53.80
2017-07-09T23:40:00.520Z,54.20
2017-07-09T23:42:28.091Z,56.50
2017-07-09T23:44:55.623Z,56.10
2017-07-09T23:47:23.194Z,55.40
2017-07-09T23:49:50.731Z,55.40
2017-07-09T23:52:18.271Z,55.20
2017-07-09T23:54:45.914Z,55.50
2017-07-09T23:57:13.448Z,55.80
2017-07-09T23:59:41.018Z,55.10
